Time;durP1;ratioP1;P1;durP2;ratioP2;P2;SDS_P1;SDS_P2;PMS_P1;PMS_P2;Temp;Humidity;BMP_temperature;BMP_pressure;BME280_temperature;BME280_humidity;BME280_pressure;Samples;Min_cycle;Max_cycle;Signal;HPM_P1;HPM_P2
2022/05/12 00:01:25;;;;;;;16.35;7.53;;;;;;;11.00;57.24;99927.86;1719737;83;21846;-92
2022/05/12 00:03:52;;;;;;;17.23;8.23;;;;;;;11.04;57.04;99917.13;1716293;80;21017;-92
2022/05/12 00:06:20;;;;;;;14.47;8.15;;;;;;;11.09;56.95;99917.78;1714534;83;21057;-92
2022/05/12 00:08:47;;;;;;;12.28;7.30;;;;;;;11.11;57.11;99918.57;1714004;83;21118;-91
2022/05/12 00:11:14;;;;;;;16.70;7.78;;;;;;;11.15;57.21;99919.75;1714206;83;21100;-92
2022/05/12 00:13:42;;;;;;;17.75;7.92;;;;;;;11.16;57.09;99926.28;1713638;83;21568;-91
2022/05/12 00:16:09;;;;;;;14.58;7.83;;;;;;;11.16;56.90;99917.49;1714359;82;21100;-91
2022/05/12 00:18:36;;;;;;;12.40;7.20;;;;;;;11.17;57.04;99924.50;1713781;83;21618;-91
2022/05/12 00:21:03;;;;;;;14.43;7.15;;;;;;;11.18;56.68;99918.29;1713791;82;21607;-91
2022/05/12 00:23:29;;;;;;;15.10;6.90;;;;;;;11.20;56.57;99920.40;1714173;82;21047;-92
2022/05/12 00:25:56;;;;;;;15.80;8.33;;;;;;;11.19;56.66;99912.11;1713775;83;22021;-90
2022/05/12 00:28:25;;;;;;;14.38;7.92;;;;;;;11.21;56.69;99914.22;1713895;80;20914;-90
2022/05/12 00:30:53;;;;;;;14.00;7.90;;;;;;;11.18;57.18;99905.99;1713876;83;21136;-91
2022/05/12 00:33:20;;;;;;;19.50;7.47;;;;;;;11.23;57.04;99921.61;1714391;82;21586;-91
2022/05/12 00:35:48;;;;;;;16.10;7.22;;;;;;;11.25;56.85;99919.73;1713854;83;21095;-93
2022/05/12 00:38:14;;;;;;;13.32;7.58;;;;;;;11.26;57.12;99917.05;1713580;83;21180;-93
2022/05/12 00:40:44;;;;;;;14.25;7.67;;;;;;;11.28;57.25;99916.98;1713805;82;21040;-91
2022/05/12 00:43:41;;;;;;;16.97;7.65;;;;;;;11.30;57.26;99914.67;1714293;83;21064;-92
2022/05/12 00:46:16;;;;;;;12.93;7.58;;;;;;;11.32;57.32;99914.62;1714130;80;21100;-90
2022/05/12 00:48:44;;;;;;;13.48;6.78;;;;;;;11.35;57.06;99918.43;1667786;85;21591;-91
2022/05/12 00:51:14;;;;;;;14.00;7.22;;;;;;;11.39;56.97;99917.37;1671926;85;21178;-92
2022/05/12 00:53:42;;;;;;;15.10;7.15;;;;;;;11.43;56.79;99911.02;1671771;84;21015;-91
2022/05/12 00:56:12;;;;;;;14.68;6.35;;;;;;;11.45;56.84;99913.13;1671835;85;21114;-90
2022/05/12 00:58:40;;;;;;;13.28;6.10;;;;;;;11.46;56.71;99913.55;1713897;80;21127;-91
2022/05/12 01:01:09;;;;;;;16.93;6.60;;;;;;;11.47;56.57;99907.33;1713723;83;21053;-91
2022/05/12 01:03:39;;;;;;;13.98;6.05;;;;;;;11.51;56.36;99911.55;1715438;81;22007;-90
2022/05/12 01:06:07;;;;;;;12.07;6.03;;;;;;;11.55;56.29;99901.73;1720749;83;21101;-90
2022/05/12 01:08:34;;;;;;;11.70;6.17;;;;;;;11.60;56.06;99904.17;1720488;83;21010;-93
2022/05/12 01:11:14;;;;;;;13.65;6.33;;;;;;;11.65;55.89;99900.86;1720349;83;21022;-93
2022/05/12 01:13:43;;;;;;;11.78;6.20;;;;;;;11.71;55.64;99901.87;1707045;83;21123;-93
2022/05/12 01:16:09;;;;;;;10.70;5.55;;;;;;;11.76;55.56;99900.76;1693988;84;21216;-92
2022/05/12 01:18:38;;;;;;;15.40;6.17;;;;;;;11.80;55.64;99896.65;1693736;84;21040;-93
2022/05/12 01:21:07;;;;;;;12.00;5.78;;;;;;;11.82;55.70;99889.53;1693854;82;21068;-91
2022/05/12 01:23:39;;;;;;;11.50;5.92;;;;;;;11.84;55.66;99892.48;1693544;84;21075;-90
2022/05/12 01:26:09;;;;;;;11.60;5.85;;;;;;;11.86;55.40;99895.06;1693579;84;21068;-91
2022/05/12 01:28:36;;;;;;;10.08;5.42;;;;;;;11.88;55.44;99894.09;1693832;82;21192;-91
2022/05/12 01:31:04;;;;;;;11.70;5.78;;;;;;;11.91;55.06;99899.22;1693893;82;21060;-92
2022/05/12 01:33:30;;;;;;;13.13;5.95;;;;;;;11.93;54.72;99896.05;1693513;82;21174;-91
2022/05/12 01:35:58;;;;;;;10.08;5.85;;;;;;;11.95;54.87;99896.84;1693867;84;21134;-91
2022/05/12 01:38:24;;;;;;;10.48;6.33;;;;;;;11.98;54.88;99902.91;1693683;84;21143;-90
2022/05/12 01:40:52;;;;;;;12.47;6.47;;;;;;;11.99;54.72;99900.67;1694075;84;21127;-93
2022/05/12 01:43:20;;;;;;;12.43;5.90;;;;;;;12.00;55.02;99899.73;1693597;84;21096;-91
2022/05/12 01:45:46;;;;;;;12.53;6.65;;;;;;;11.99;55.48;99891.44;1693952;84;21112;-92
2022/05/12 01:48:13;;;;;;;12.03;5.80;;;;;;;12.00;55.39;99894.45;1693609;82;21553;-92
2022/05/12 01:50:42;;;;;;;11.65;5.75;;;;;;;12.01;54.95;99893.08;1693445;84;21091;-91
2022/05/12 01:53:11;;;;;;;11.80;6.00;;;;;;;12.01;54.60;99883.84;1694210;84;21199;-92
2022/05/12 01:56:28;;;;;;;12.15;5.60;;;;;;;12.12;54.33;99888.59;1779303;79;22619;-69
2022/05/12 01:58:54;;;;;;;9.83;5.40;;;;;;;12.10;53.97;99889.13;1747975;82;21178;-70
2022/05/12 02:01:21;;;;;;;10.72;5.22;;;;;;;12.14;53.78;99888.05;1748059;82;21121;-69
2022/05/12 02:03:48;;;;;;;10.72;5.78;;;;;;;12.16;53.78;99890.16;1747784;82;21104;-70
2022/05/12 02:06:14;;;;;;;12.25;5.85;;;;;;;12.18;53.79;99888.31;1747870;82;21186;-70
2022/05/12 02:08:41;;;;;;;9.70;5.53;;;;;;;12.20;53.56;99890.42;1748400;82;21115;-70
2022/05/12 02:11:07;;;;;;;13.55;5.50;;;;;;;12.21;53.84;99885.52;1748045;82;20977;-69
2022/05/12 02:13:34;;;;;;;10.32;5.37;;;;;;;12.21;54.35;99885.52;1748283;82;21148;-69
2022/05/12 02:16:01;;;;;;;11.90;6.12;;;;;;;12.22;53.69;99887.24;1748346;82;21539;-70
2022/05/12 02:18:28;;;;;;;10.25;5.12;;;;;;;12.21;53.91;99885.52;1747756;82;21045;-69
2022/05/12 02:20:55;;;;;;;13.32;5.78;;;;;;;12.22;54.10;99883.28;1748165;82;21040;-70
2022/05/12 02:23:22;;;;;;;15.88;5.65;;;;;;;12.21;54.29;99882.88;1747756;82;21029;-70
2022/05/12 02:25:49;;;;;;;11.35;5.20;;;;;;;12.20;54.56;99882.50;1747800;82;22044;-70
2022/05/12 02:28:15;;;;;;;10.20;5.83;;;;;;;12.21;54.88;99885.52;1747608;82;21053;-69
2022/05/12 02:30:43;;;;;;;10.38;5.83;;;;;;;12.21;54.76;99893.44;1747625;82;21109;-69
2022/05/12 02:33:10;;;;;;;11.90;6.22;;;;;;;12.18;54.79;99889.63;1747602;82;21379;-70
2022/05/12 02:35:38;;;;;;;8.68;5.35;;;;;;;12.18;54.99;99896.23;1747811;82;21596;-70
2022/05/12 02:38:07;;;;;;;11.88;5.72;;;;;;;12.17;55.40;99891.89;1747733;82;21049;-71
2022/05/12 02:40:34;;;;;;;12.18;5.85;;;;;;;12.17;55.39;99889.25;1747506;82;21045;-70
2022/05/12 02:43:01;;;;;;;12.28;5.60;;;;;;;12.17;55.62;99889.25;1747807;81;21045;-70
2022/05/12 02:45:28;;;;;;;8.95;5.58;;;;;;;12.16;55.49;99890.16;1747807;82;21601;-70
2022/05/12 02:47:56;;;;;;;13.38;5.67;;;;;;;12.16;55.18;99890.16;1747602;82;21025;-70
2022/05/12 02:50:23;;;;;;;17.50;5.85;;;;;;;12.17;55.32;99883.50;1747839;82;21243;-70
2022/05/12 02:52:50;;;;;;;12.88;5.72;;;;;;;12.18;54.72;99883.88;1747583;82;21052;-70
2022/05/12 02:55:16;;;;;;;9.48;5.45;;;;;;;12.22;54.80;99885.92;1742382;81;21041;-69
2022/05/12 02:57:44;;;;;;;14.30;5.42;;;;;;;12.26;54.36;99882.22;1734493;82;21101;-69
2022/05/12 03:00:16;;;;;;;13.58;5.40;;;;;;;12.30;54.32;99887.71;1734372;82;21049;-69
2022/05/12 03:02:43;;;;;;;13.90;5.30;;;;;;;12.34;54.44;99886.64;1734633;82;21061;-70
2022/05/12 03:05:09;;;;;;;7.92;4.42;;;;;;;12.36;54.64;99892.71;1734807;82;21033;-70
2022/05/12 03:07:36;;;;;;;11.38;5.33;;;;;;;12.41;54.22;99886.36;1734068;82;21101;-70
2022/05/12 03:10:05;;;;;;;14.18;5.08;;;;;;;12.44;54.30;99888.84;1733936;82;21074;-70
2022/05/12 03:12:32;;;;;;;14.98;5.05;;;;;;;12.48;54.57;99889.09;1732822;82;21692;-70
2022/05/12 03:15:00;;;;;;;9.35;4.95;;;;;;;12.50;54.47;99889.88;1704720;84;21330;-70
2022/05/12 03:17:27;;;;;;;13.48;5.55;;;;;;;12.53;54.88;99891.03;1704377;84;21035;-70
2022/05/12 03:19:54;;;;;;;16.00;5.20;;;;;;;12.55;55.08;99894.45;1704725;84;21030;-70
2022/05/12 03:22:20;;;;;;;14.40;5.33;;;;;;;12.57;55.35;99888.64;1704595;84;21514;-70
2022/05/12 03:24:47;;;;;;;12.60;5.42;;;;;;;12.60;55.16;99888.48;1704593;84;21061;-70
2022/05/12 03:27:14;;;;;;;8.40;4.65;;;;;;;12.63;54.78;99888.79;1704681;84;21296;-70
2022/05/12 03:29:40;;;;;;;9.05;5.03;;;;;;;12.65;54.09;99879.85;1704567;84;21082;-70
2022/05/12 03:32:10;;;;;;;9.50;4.60;;;;;;;12.70;53.86;99883.59;1704821;84;21153;-70
2022/05/12 03:34:41;;;;;;;12.05;4.40;;;;;;;12.76;53.52;99886.78;1705156;84;21549;-70
2022/05/12 03:37:08;;;;;;;9.23;4.83;;;;;;;12.82;53.12;99886.11;1704295;84;21071;-70
2022/05/12 03:39:37;;;;;;;11.90;4.60;;;;;;;12.88;52.54;99883.14;1705205;83;21078;-69
2022/05/12 03:42:04;;;;;;;6.15;3.75;;;;;;;12.93;51.79;99873.19;1704834;84;21095;-70
2022/05/12 03:47:22;;;;;;;15.08;3.98;;;;;;;13.09;51.49;99875.46;1705128;84;21075;-71
2022/05/12 03:49:54;;;;;;;11.28;4.12;;;;;;;13.19;50.95;99877.16;1705256;84;21859;-71
2022/05/12 03:52:21;;;;;;;16.95;4.58;;;;;;;13.26;50.71;99881.19;1705345;83;22136;-70
2022/05/12 03:54:48;;;;;;;10.10;4.03;;;;;;;13.34;50.38;99872.88;1705749;83;21568;-71
2022/05/12 03:57:15;;;;;;;13.53;4.72;;;;;;;13.42;50.17;99870.69;1725903;83;22114;-70
2022/05/12 03:59:42;;;;;;;11.80;5.05;;;;;;;13.51;49.68;99880.78;1725595;83;21096;-70
2022/05/12 04:02:10;;;;;;;7.33;4.25;;;;;;;13.57;49.53;99879.15;1725873;83;21052;-70
2022/05/12 04:04:43;;;;;;;14.38;4.65;;;;;;;13.63;49.07;99878.80;1726031;83;22919;-69
2022/05/12 04:07:11;;;;;;;8.30;4.08;;;;;;;13.71;48.79;99878.85;1725713;83;21489;-71
2022/05/12 04:09:37;;;;;;;8.25;4.00;;;;;;;13.76;48.76;99879.48;1725728;83;21092;-70
2022/05/12 04:12:09;;;;;;;9.88;5.03;;;;;;;13.82;48.84;99874.68;1725857;83;21029;-70
2022/05/12 04:14:38;;;;;;;10.28;4.17;;;;;;;13.89;48.30;99879.17;1725833;83;21081;-71
2022/05/12 04:17:08;;;;;;;9.10;4.10;;;;;;;13.95;48.08;99874.03;1725891;83;21790;-70
2022/05/12 04:19:34;;;;;;;7.17;4.15;;;;;;;14.01;47.96;99878.52;1725809;83;21566;-69
2022/05/12 04:22:00;;;;;;;8.60;4.12;;;;;;;14.08;47.95;99876.84;1725807;83;21072;-69
2022/05/12 04:24:27;;;;;;;7.85;4.12;;;;;;;14.15;47.83;99870.25;1725731;83;21093;-70
2022/05/12 04:26:54;;;;;;;7.92;3.62;;;;;;;14.21;48.08;99872.57;1726026;83;21104;-69
2022/05/12 04:29:21;;;;;;;12.55;4.25;;;;;;;14.29;48.24;99876.98;1725659;83;21231;-69
2022/05/12 04:31:47;;;;;;;8.38;3.67;;;;;;;14.38;48.08;99880.43;1725707;83;21135;-70
2022/05/12 04:36:58;;;;;;;12.82;4.95;;;;;;;14.56;48.11;99877.69;1725737;83;21123;-70
2022/05/12 04:39:26;;;;;;;10.40;4.55;;;;;;;14.64;47.85;99880.28;1725832;83;21509;-70
2022/05/12 04:41:53;;;;;;;10.20;4.78;;;;;;;14.74;47.45;99877.95;1725788;83;22345;-70
2022/05/12 04:44:20;;;;;;;14.38;4.58;;;;;;;14.85;47.46;99876.00;1725616;83;21024;-70
2022/05/12 04:46:47;;;;;;;20.95;5.00;;;;;;;14.93;46.84;99879.08;1725698;83;21060;-70
2022/05/12 04:49:14;;;;;;;11.97;5.28;;;;;;;15.05;46.57;99888.09;1725695;83;21061;-71
2022/05/12 04:51:41;;;;;;;12.47;5.03;;;;;;;15.13;45.91;99892.45;1725692;83;21556;-70
2022/05/12 04:54:09;;;;;;;11.85;4.75;;;;;;;15.21;45.92;99888.88;1725616;83;21197;-70
2022/05/12 04:56:37;;;;;;;14.07;4.80;;;;;;;15.31;45.44;99887.84;1725716;83;22185;-71
2022/05/12 04:59:06;;;;;;;10.13;3.67;;;;;;;15.43;45.37;99880.94;1725515;83;21096;-69
2022/05/12 05:01:34;;;;;;;12.47;4.62;;;;;;;15.54;45.10;99882.47;1725875;83;21544;-71
2022/05/12 05:04:03;;;;;;;16.75;4.85;;;;;;;15.68;45.05;99885.11;1725699;83;21844;-70
2022/05/12 05:06:32;;;;;;;10.70;4.12;;;;;;;15.83;44.75;99878.52;1725425;83;21141;-71
2022/05/12 05:08:58;;;;;;;15.85;3.87;;;;;;;16.10;44.38;99875.45;1724899;83;21596;-70
2022/05/12 05:11:25;;;;;;;14.07;4.08;;;;;;;16.31;44.00;99877.64;1726044;83;21085;-71
2022/05/12 05:13:53;;;;;;;10.10;3.70;;;;;;;16.49;43.69;99879.10;1699129;83;21035;-70
2022/05/12 05:16:20;;;;;;;11.50;3.80;;;;;;;16.73;43.22;99872.66;1725731;83;21125;-71
2022/05/12 05:18:47;;;;;;;10.95;3.83;;;;;;;16.96;42.79;99867.16;1725908;83;21198;-70
2022/05/12 05:21:14;;;;;;;16.23;3.92;;;;;;;17.26;42.11;99867.83;1725651;83;21465;-71
2022/05/12 05:23:41;;;;;;;11.20;3.67;;;;;;;17.75;41.40;99864.39;1725693;83;21067;-72
2022/05/12 05:26:08;;;;;;;16.55;4.53;;;;;;;18.50;40.12;99866.13;1726008;83;21577;-70
2022/05/12 05:28:36;;;;;;;9.63;4.75;;;;;;;19.22;39.22;99847.34;1725657;83;21039;-72
2022/05/12 05:31:04;;;;;;;11.08;4.72;;;;;;;20.01;36.30;99858.05;1725841;83;21136;-70
2022/05/12 05:33:31;;;;;;;8.58;3.95;;;;;;;20.59;35.01;99857.80;1725819;83;21272;-71
2022/05/12 05:35:58;;;;;;;12.03;3.90;;;;;;;21.16;33.35;99853.86;1725424;83;21062;-70
2022/05/12 05:38:25;;;;;;;9.78;3.52;;;;;;;21.72;32.24;99847.30;1725518;81;21054;-70
2022/05/12 05:40:52;;;;;;;12.33;3.02;;;;;;;22.20;31.12;99845.21;1725637;83;21082;-71
2022/05/12 05:43:19;;;;;;;12.37;2.67;;;;;;;22.31;30.43;99843.78;1725428;83;20992;-70
2022/05/12 05:45:46;;;;;;;10.43;3.17;;;;;;;22.13;29.98;99844.07;1725471;83;21066;-70
2022/05/12 05:48:13;;;;;;;7.08;2.85;;;;;;;21.95;30.42;99838.05;1725536;83;21099;-70
2022/05/12 05:53:31;;;;;;;10.13;3.10;;;;;;;21.63;29.51;99830.69;1725811;83;21023;-71
2022/05/12 05:55:59;;;;;;;10.03;3.20;;;;;;;21.65;30.10;99830.03;1716941;83;21239;-71
2022/05/12 05:58:26;;;;;;;10.85;3.60;;;;;;;21.79;29.48;99829.69;1689560;84;21061;-71
2022/05/12 06:00:54;;;;;;;8.68;2.90;;;;;;;22.17;28.84;99823.55;1690001;84;21074;-72
2022/05/12 06:03:21;;;;;;;6.58;3.10;;;;;;;22.52;28.11;99821.34;1689850;84;21336;-71
2022/05/12 06:05:47;;;;;;;9.78;3.10;;;;;;;22.84;27.70;99814.34;1689416;83;21128;-72
2022/05/12 06:08:16;;;;;;;9.50;2.70;;;;;;;23.16;27.32;99818.05;1689713;84;21116;-70
2022/05/12 06:10:44;;;;;;;7.60;3.15;;;;;;;23.53;26.52;99817.22;1658949;86;21113;-71
2022/05/12 06:13:14;;;;;;;11.95;3.37;;;;;;;24.00;26.17;99809.11;1702961;82;21026;-71
2022/05/12 06:15:41;;;;;;;10.00;2.87;;;;;;;24.41;25.23;99809.53;1734040;82;21085;-71
2022/05/12 06:18:13;;;;;;;7.30;2.80;;;;;;;24.52;24.96;99801.73;1734155;82;21082;-72
2022/05/12 06:20:41;;;;;;;6.55;2.75;;;;;;;24.48;25.04;99797.17;1733663;82;21138;-70
2022/05/12 06:23:10;;;;;;;6.17;2.90;;;;;;;24.67;25.23;99788.08;1733854;82;21058;-71
2022/05/12 06:25:36;;;;;;;9.43;3.17;;;;;;;25.00;24.50;99790.16;1734164;82;21124;-71
2022/05/12 06:28:04;;;;;;;7.75;2.52;;;;;;;25.20;24.41;99776.02;1733519;82;21114;-70
2022/05/12 06:30:32;;;;;;;9.40;3.10;;;;;;;25.16;23.82;99785.39;1733807;82;21022;-70
2022/05/12 06:32:58;;;;;;;10.32;2.90;;;;;;;25.03;24.32;99783.97;1733707;82;21100;-70
2022/05/12 06:35:26;;;;;;;6.87;2.80;;;;;;;25.09;24.76;99781.13;1733841;82;21105;-72
2022/05/12 06:37:53;;;;;;;7.55;2.72;;;;;;;25.43;25.19;99779.84;1733885;82;21565;-73
2022/05/12 06:40:20;;;;;;;9.55;2.70;;;;;;;25.71;23.98;99773.71;1734201;82;21062;-71
2022/05/12 06:42:48;;;;;;;6.65;2.87;;;;;;;25.64;24.22;99775.38;1733877;82;21041;-71
2022/05/12 06:45:16;;;;;;;8.50;2.77;;;;;;;25.65;24.95;99780.26;1734420;82;21184;-71
2022/05/12 06:47:50;;;;;;;23.12;3.42;;;;;;;25.77;24.73;99771.36;1733962;82;21100;-70
2022/05/12 06:50:17;;;;;;;13.93;3.35;;;;;;;25.70;24.13;99771.20;1732817;82;21032;-71
2022/05/12 06:52:43;;;;;;;7.50;3.10;;;;;;;25.64;24.18;99759.20;1733995;81;21035;-72
2022/05/12 06:55:11;;;;;;;6.45;3.15;;;;;;;25.48;24.44;99768.57;1734217;82;21031;-71
2022/05/12 06:57:39;;;;;;;9.98;3.00;;;;;;;25.55;24.62;99768.27;1745073;81;21578;-71
2022/05/12 07:00:08;;;;;;;9.85;3.08;;;;;;;25.74;24.26;99768.02;1747992;81;21053;-71
2022/05/12 07:02:38;;;;;;;7.72;2.45;;;;;;;26.03;24.38;99766.76;1748536;81;21080;-70
2022/05/12 07:05:08;;;;;;;7.67;2.80;;;;;;;26.43;23.68;99766.97;1747999;82;21510;-72
2022/05/12 07:07:35;;;;;;;10.13;3.10;;;;;;;26.50;23.54;99772.91;1748454;82;21154;-72
2022/05/12 07:10:03;;;;;;;8.33;3.12;;;;;;;26.37;23.70;99761.75;1748007;82;22006;-72
2022/05/12 07:12:30;;;;;;;8.20;2.70;;;;;;;26.20;23.78;99757.34;1747127;82;21130;-72
2022/05/12 07:14:58;;;;;;;9.00;2.75;;;;;;;26.02;24.06;99754.77;1718222;83;21603;-71
2022/05/12 07:17:25;;;;;;;9.50;2.83;;;;;;;26.22;24.20;99762.06;1718433;83;21118;-71
2022/05/12 07:26:34;;;;;;;7.30;2.85;;;;;;;26.74;23.53;99756.38;1718280;83;21027;-71
2022/05/12 07:27:51;;;;;;;10.32;3.00;;;;;;;27.09;22.83;99754.28;1718007;83;21080;-72
2022/05/12 07:30:18;;;;;;;10.30;2.65;;;;;;;27.00;22.63;99756.99;1718344;83;21014;-70
2022/05/12 07:32:45;;;;;;;11.03;2.70;;;;;;;26.78;22.84;99750.46;1718152;83;21116;-70
2022/05/12 07:35:12;;;;;;;4.85;2.75;;;;;;;26.61;22.94;99743.38;1718078;83;21251;-72
2022/05/12 07:37:41;;;;;;;7.58;2.70;;;;;;;26.61;22.92;99750.64;1718520;83;21520;-71
2022/05/12 07:40:09;;;;;;;8.88;2.75;;;;;;;26.66;23.35;99735.60;1691941;83;21049;-71
2022/05/12 07:42:39;;;;;;;10.30;2.40;;;;;;;26.91;23.19;99743.16;1718417;83;21033;-71
2022/05/12 07:45:07;;;;;;;11.10;2.67;;;;;;;26.98;23.09;99737.41;1718596;83;21076;-70
2022/05/12 07:47:34;;;;;;;6.65;2.70;;;;;;;27.17;23.04;99732.63;1691689;83;21232;-71
2022/05/12 07:50:01;;;;;;;7.33;2.83;;;;;;;27.44;22.84;99733.25;1718057;83;21093;-71
2022/05/12 07:52:29;;;;;;;11.57;2.75;;;;;;;27.56;22.72;99730.47;1718301;83;21053;-72
2022/05/12 07:54:55;;;;;;;8.53;3.15;;;;;;;27.74;22.61;99722.11;1718479;83;21038;-70
2022/05/12 07:57:23;;;;;;;7.45;2.90;;;;;;;27.76;22.70;99724.95;1718311;83;21635;-70
2022/05/12 07:59:51;;;;;;;13.30;2.85;;;;;;;27.74;22.50;99711.28;1718829;83;21093;-71
2022/05/12 08:02:19;;;;;;;14.28;3.80;;;;;;;27.67;23.30;99710.31;1718462;83;21569;-71
2022/05/12 08:04:46;;;;;;;12.15;3.65;;;;;;;27.65;23.51;99714.53;1718269;83;21006;-70
2022/05/12 08:07:13;;;;;;;4.67;2.95;;;;;;;27.71;23.59;99710.30;1718348;83;21233;-71
2022/05/12 08:09:40;;;;;;;7.42;2.87;;;;;;;28.19;23.65;99705.61;1718290;83;21128;-71
2022/05/12 08:12:08;;;;;;;6.65;2.80;;;;;;;28.32;23.17;99704.98;1718089;83;21550;-71
2022/05/12 08:14:34;;;;;;;9.90;2.90;;;;;;;28.00;23.40;99697.47;1744607;82;21398;-71
2022/05/12 08:17:01;;;;;;;9.85;2.90;;;;;;;27.97;23.67;99694.58;1748048;81;21035;-72
2022/05/12 08:19:29;;;;;;;6.05;3.02;;;;;;;27.93;24.24;99696.48;1747911;81;21026;-71
2022/05/12 08:21:56;;;;;;;8.93;3.15;;;;;;;27.91;24.91;99687.72;1748085;82;21096;-71
2022/05/12 08:24:23;;;;;;;8.75;3.20;;;;;;;28.40;24.92;99688.67;1748203;82;21103;-71
2022/05/12 08:26:49;;;;;;;11.50;2.95;;;;;;;29.00;24.49;99681.48;1747826;82;20995;-71
2022/05/12 08:29:16;;;;;;;13.58;3.67;;;;;;;29.46;23.97;99673.97;1748170;82;21066;-70
2022/05/12 08:31:42;;;;;;;11.63;3.58;;;;;;;29.68;23.97;99674.06;1748050;82;21077;-71
2022/05/12 08:34:09;;;;;;;50.50;5.55;;;;;;;29.42;24.01;99680.80;1747985;82;21000;-70
2022/05/12 08:36:36;;;;;;;12.25;3.33;;;;;;;28.84;24.65;99679.80;1748153;82;21346;-71
2022/05/12 08:39:04;;;;;;;6.10;3.10;;;;;;;28.60;25.13;99680.91;1747818;82;22107;-71
2022/05/12 08:41:44;;;;;;;5.85;3.37;;;;;;;28.82;24.87;99674.55;1748109;82;21002;-71
2022/05/12 08:44:14;;;;;;;7.85;3.08;;;;;;;29.17;24.38;99678.08;1748107;82;21057;-72
2022/05/12 08:46:54;;;;;;;;;;;;;;;29.33;24.51;99665.67;1751180;82;21068;-71
2022/05/12 08:49:38;;;;;;;9.98;3.10;;;;;;;29.82;23.49;99666.37;1748019;82;21886;-71
2022/05/12 08:52:16;;;;;;;12.37;3.17;;;;;;;29.82;23.49;99666.37;1747843;82;21025;-71
2022/05/12 08:54:52;;;;;;;9.60;3.50;;;;;;;30.07;23.91;99667.33;1747987;82;21154;-72
2022/05/12 08:57:37;;;;;;;9.38;3.12;;;;;;;29.54;24.34;99658.61;1747913;81;21077;-72
2022/05/12 09:00:09;;;;;;;14.83;3.60;;;;;;;29.19;25.23;99666.54;1741926;82;21053;-72
2022/05/12 09:02:59;;;;;;;5.90;3.25;;;;;;;29.13;25.04;99667.31;1748072;82;21201;-72
2022/05/12 09:05:33;;;;;;;4.67;3.22;;;;;;;29.19;24.91;99648.91;1719579;82;21073;-70
2022/05/12 09:08:10;;;;;;;6.42;2.98;;;;;;;30.25;23.48;99640.58;1748088;82;21053;-71
2022/05/12 09:10:48;;;;;;;7.75;3.30;;;;;;;30.25;23.48;99640.58;1744094;82;21078;-70
2022/05/12 09:13:27;;;;;;;11.55;3.47;;;;;;;30.64;23.46;99632.39;1731285;82;21549;-72
2022/05/12 09:16:18;;;;;;;7.75;3.50;;;;;;;30.50;24.04;99637.42;1747943;82;21815;-71
2022/05/12 09:18:44;;;;;;;;;;;;;;;30.58;23.90;99633.20;1743876;82;21030;-71
2022/05/12 09:21:18;;;;;;;15.50;4.10;;;;;;;30.34;24.14;99623.62;1747718;82;20147;-71
2022/05/12 09:23:44;;;;;;;10.15;3.17;;;;;;;30.45;24.24;99608.14;1746489;82;21560;-72
2022/05/12 09:26:45;;;;;;;10.32;3.40;;;;;;;31.06;23.88;99617.48;1747781;81;21530;-70
2022/05/12 09:29:25;;;;;;;3.97;3.03;;;;;;;31.45;22.81;99603.24;1748104;81;21981;-72
2022/05/12 09:31:57;;;;;;;5.20;3.17;;;;;;;31.55;22.86;99611.83;1747484;82;22382;-71
2022/05/12 09:34:42;;;;;;;;;;;;;;;31.23;22.83;99604.39;1745988;82;21108;-71
2022/05/12 09:37:20;;;;;;;10.40;4.03;;;;;;;30.36;23.97;99611.20;1747794;82;20653;-71
2022/05/12 09:39:53;;;;;;;9.58;3.25;;;;;;;30.04;24.59;99612.07;1747876;81;21044;-72
2022/05/12 09:42:40;;;;;;;13.70;3.80;;;;;;;30.24;24.58;99608.17;1748007;81;21169;-71
2022/05/12 09:45:17;;;;;;;10.72;4.05;;;;;;;30.49;24.57;99600.44;1747977;82;21849;-71
2022/05/12 09:47:44;;;;;;;22.02;4.45;;;;;;;30.96;23.29;99590.67;1747689;81;21046;-70
2022/05/12 09:50:26;;;;;;;6.08;3.37;;;;;;;30.98;23.51;99591.31;1747752;82;21596;-71
2022/05/12 09:52:57;;;;;;;12.65;3.70;;;;;;;30.89;23.26;99576.22;1747831;81;21037;-72
2022/05/12 09:55:36;;;;;;;22.95;4.10;;;;;;;30.93;23.47;99576.97;1746717;82;21143;-70
2022/05/12 09:58:17;;;;;;;11.75;3.67;;;;;;;30.76;23.58;99584.27;1747885;81;21041;-71
2022/05/12 10:00:49;;;;;;;9.13;3.47;;;;;;;30.55;23.91;99576.53;1747529;82;21828;-72
2022/05/12 10:09:18;;;;;;;9.28;3.75;;;;;;;30.66;23.63;99555.59;1747595;82;21128;-72
2022/05/12 10:11:49;;;;;;;8.50;3.30;;;;;;;30.59;23.63;99560.67;1748162;82;21061;-71
2022/05/12 10:14:47;;;;;;;8.35;4.28;;;;;;;30.85;23.49;99550.47;1725514;82;21068;-71
2022/05/12 10:17:32;;;;;;;11.60;3.80;;;;;;;30.99;23.58;99549.51;1718272;83;21093;-71
2022/05/12 10:20:10;;;;;;;13.28;3.65;;;;;;;31.04;23.67;99552.45;1718178;83;21072;-71
2022/05/12 10:22:44;;;;;;;12.50;3.50;;;;;;;30.90;23.41;99542.58;1718296;83;21103;-71
2022/05/12 10:25:36;;;;;;;10.43;3.60;;;;;;;30.42;23.83;99546.59;1718074;83;21073;-72
2022/05/12 10:28:10;;;;;;;9.78;3.90;;;;;;;30.17;24.33;99534.80;1718579;83;21632;-71
2022/05/12 10:31:09;;;;;;;6.78;3.45;;;;;;;30.28;24.37;99532.09;1716944;83;21144;-70
2022/05/12 10:34:10;;;;;;;5.15;3.35;;;;;;;30.37;24.29;99525.95;1718062;83;21081;-71
2022/05/12 10:37:08;;;;;;;10.40;3.27;;;;;;;30.73;23.80;99527.09;1717862;83;21270;-72
2022/05/12 10:39:50;;;;;;;8.93;4.33;;;;;;;30.94;23.07;99524.78;1717813;83;21574;-72
2022/05/12 10:42:46;;;;;;;52.35;6.05;;;;;;;30.88;22.94;99506.59;1717884;83;21079;-71
2022/05/12 10:45:27;;;;;;;8.35;3.70;;;;;;;30.84;22.85;99509.37;1717886;83;21633;-72
2022/05/12 10:48:23;;;;;;;12.47;3.80;;;;;;;31.09;22.76;99492.84;1718455;83;21093;-71
2022/05/12 10:51:02;;;;;;;7.00;3.60;;;;;;;31.55;22.23;99494.81;1718022;83;21545;-71
2022/05/12 10:54:22;;;;;;;7.67;3.45;;;;;;;31.78;21.45;99488.13;1718504;83;21054;-72
2022/05/12 10:57:09;;;;;;;8.80;3.75;;;;;;;31.54;22.03;99479.55;1718294;83;21162;-72
2022/05/12 11:00:04;;;;;;;25.45;4.80;;;;;;;31.47;22.74;99486.88;1717944;83;21632;-72
2022/05/12 11:02:41;;;;;;;15.05;3.83;;;;;;;31.69;22.24;99470.33;1718265;83;21029;-71
2022/05/12 11:05:31;;;;;;;11.20;3.58;;;;;;;31.46;21.96;99472.11;1718445;83;21091;-71
2022/05/12 11:08:07;;;;;;;10.85;3.35;;;;;;;31.41;21.96;99472.73;1717371;83;28220;-71
2022/05/12 11:10:54;;;;;;;7.78;3.55;;;;;;;31.59;22.25;99469.90;1718363;83;21490;-71
2022/05/12 11:13:52;;;;;;;12.30;3.20;;;;;;;31.91;21.65;99459.52;1728447;82;21044;-70
2022/05/12 11:16:30;;;;;;;6.35;3.37;;;;;;;32.11;21.17;99468.20;1737666;82;21084;-72
2022/05/12 11:19:20;;;;;;;6.87;3.15;;;;;;;31.63;21.71;99452.11;1747958;82;21206;-72
2022/05/12 11:21:58;;;;;;;11.38;3.45;;;;;;;31.56;21.88;99439.36;1748044;82;21037;-71
2022/05/12 11:24:45;;;;;;;12.15;3.20;;;;;;;31.55;22.10;99426.79;1747676;82;22235;-72
2022/05/12 11:27:36;;;;;;;13.62;3.67;;;;;;;31.54;22.37;99441.45;1747435;82;21026;-72
2022/05/12 11:30:24;;;;;;;13.80;3.58;;;;;;;31.63;22.14;99448.03;1692495;84;21096;-72
2022/05/12 11:33:10;;;;;;;6.73;3.30;;;;;;;31.34;22.18;99427.81;1740441;82;21167;-71
2022/05/12 11:35:43;;;;;;;19.35;3.85;;;;;;;31.45;21.93;99420.95;1747891;81;21057;-72
2022/05/12 11:38:31;;;;;;;11.97;3.70;;;;;;;31.47;22.40;99436.54;1748121;82;21101;-71
2022/05/12 11:40:57;;;;;;;69.87;7.50;;;;;;;31.24;22.50;99423.82;1747833;82;21072;-72
2022/05/12 11:46:53;;;;;;;12.07;4.05;;;;;;;30.65;23.22;99412.62;1747951;82;21246;-71
2022/05/12 11:49:56;;;;;;;9.40;3.90;;;;;;;30.70;23.12;99412.83;1747997;82;21112;-72
2022/05/12 11:52:44;;;;;;;13.00;3.80;;;;;;;30.78;23.05;99413.16;1747963;81;21061;-72
2022/05/12 11:55:22;;;;;;;14.65;3.52;;;;;;;30.50;23.12;99411.93;1747813;82;21015;-71
2022/05/12 11:58:12;;;;;;;13.70;3.27;;;;;;;30.25;23.00;99410.23;1745700;81;21081;-71
2022/05/12 12:00:44;;;;;;;11.33;3.58;;;;;;;30.25;23.22;99405.66;1733672;82;21857;-71
2022/05/12 12:03:25;;;;;;;12.10;3.42;;;;;;;30.45;23.04;99397.59;1733938;82;21585;-71
2022/05/12 12:05:58;;;;;;;15.32;3.33;;;;;;;30.45;22.67;99393.52;1733593;82;21051;-71
2022/05/12 12:08:39;;;;;;;13.30;3.65;;;;;;;30.60;23.03;99393.88;1734062;82;21042;-71
2022/05/12 12:11:22;;;;;;;12.75;3.40;;;;;;;30.66;23.18;99383.55;1734055;82;21965;-71
2022/05/12 12:13:55;;;;;;;11.85;3.75;;;;;;;30.81;23.26;99365.20;1716814;82;22225;-72